Aérodrome :
LOGIN :

S'inscrire | Disclaimer

   EN    FR    IT 

 










Légende :    VFR   VFR Marginal   IFR   IFR Intensif   IFR Très Intensif
Visi : 
Plafond : 
>= 8 km
>= 3000ft
5 à 8 km
1000 à 3000 ft
1500m à 5 km
500 à 1000 ft
800 à 1500m
200 à 500 ft
< 800m
< 200 ft
Symboles :   Orages  Brouillard  Fortes neiges  Fortes précipitations  Vent > 20 kt
SIGMETs :   Divers  Orages  Givrage  Turbulence  Onde Orograph.  Cendres Volcan.






- Altitude de l'aérodrome : 1300 ft
- Code IATA : LIG


LFBL - Limoges

DERNIER METAR :
  • 071400Z AUTO 22006KT 190V250 3700 BR OVC002 08/08 Q1021 TEMPO 0600 FG VV///

METARs EXPIRÉS :
  • 071330Z AUTO 20007KT 3000 DZ BR OVC002 08/08 Q1021 TEMPO 0600 FG VV///
  • 071300Z AUTO 22006KT 2500 DZ BR OVC002 08/08 Q1021 TEMPO 0600 FG VV///
  • 071230Z AUTO 20006KT 2200 0900 R21/4000D R03/2000U BCFG OVC002 08/08 Q1021 TEMPO 0600 FG VV///
  • 071200Z AUTO 21006KT 2800 0750 R21/3200D R03/2400D -DZ BCFG OVC002 08/08 Q1021 TEMPO 0600 FG VV///
  • 071130Z AUTO 22007KT 190V250 1600 0800 R21/2900D R03/2500D BCFG OVC001 08/08 Q1021 TEMPO OVC003

TAF TAF LFBL
Valide du 07 à 12h jusqu'au 08 à 12h UTC


071100Z 0712/0812 20006KT 8000 BKN006
TEMPO 0712/0809 2000 -DZRA OVC003
PROB30 0712/0808 0600 FG VV///
BECMG 0810/0812 22012KT BKN011
ATIS : +33 5 55 48 40 37



MET'MAP, la Météo Aéronautique d'un coup d'oeil ! - Copyright ORBIFLY Décembre 2007 - Disclaimer

ORBIFLY MET'MAP TEAM :

Programmation & Développement : Alexandra Zaïnal
Sur une idée originale de : Baudouin d'Aumeries
Assistance à la programmation : Marc-Olivier Méhu
Soutien technique & logistique : Manuel Goepfert

Contact : metmap@orbifly.com




SOURCES & CREDITS :

   NOAA